Time;durP1;ratioP1;P1;durP2;ratioP2;P2;SDS_P1;SDS_P2;PMS_P1;PMS_P2;Temp;Humidity;BMP_temperature;BMP_pressure;BME280_temperature;BME280_humidity;BME280_pressure;Samples;Min_cycle;Max_cycle;Signal;HPM_P1;HPM_P2
2021/11/09 00:02:39;;;;;;;3.80;1.88;;;6.10;99.90;;;;;;5071827;28;20040;-71
2021/11/09 00:05:25;;;;;;;0.73;0.68;;;6.10;99.90;;;;;;5070857;28;20083;-71
2021/11/09 00:08:12;;;;;;;0.10;0.10;;;6.00;99.90;;;;;;5071237;28;20035;-70
2021/11/09 00:10:56;;;;;;;8.50;1.75;;;6.10;99.90;;;;;;5071598;28;20094;-71
2021/11/09 00:13:43;;;;;;;0.75;0.45;;;6.10;99.90;;;;;;5071888;28;20039;-71
2021/11/09 00:16:30;;;;;;;0.20;0.20;;;5.90;99.90;;;;;;5072271;28;20044;-71
2021/11/09 00:19:15;;;;;;;27.30;2.28;;;6.00;99.90;;;;;;5074523;28;20074;-71
2021/11/09 00:21:59;;;;;;;1.40;1.30;;;6.00;99.90;;;;;;5074765;28;20051;-71
2021/11/09 00:24:44;;;;;;;0.30;0.30;;;5.80;99.90;;;;;;5075287;28;20045;-71
2021/11/09 00:27:28;;;;;;;3.63;0.75;;;5.70;99.90;;;;;;5075233;28;20089;-71
2021/11/09 00:30:16;;;;;;;0.10;0.10;;;5.70;99.90;;;;;;5074347;28;20491;-71
2021/11/09 00:33:02;;;;;;;0.22;0.22;;;5.60;99.90;;;;;;5074958;28;20440;-71
2021/11/09 00:35:46;;;;;;;0.55;0.55;;;5.60;99.90;;;;;;5074117;28;20558;-71
2021/11/09 00:38:31;;;;;;;10.40;2.10;;;5.20;99.90;;;;;;5074004;28;20118;-70
2021/11/09 00:41:16;;;;;;;0.17;0.17;;;5.30;99.90;;;;;;5073988;28;20036;-71
2021/11/09 00:44:00;;;;;;;0.17;0.17;;;5.20;99.90;;;;;;5074882;28;20508;-71
2021/11/09 00:46:45;;;;;;;0.70;0.70;;;5.20;99.90;;;;;;5073957;28;20497;-71
2021/11/09 00:49:29;;;;;;;0.50;0.50;;;5.20;99.90;;;;;;5074213;28;20435;-71
2021/11/09 00:52:14;;;;;;;12.23;3.13;;;5.20;99.90;;;;;;5074732;28;20139;-71
2021/11/09 00:55:00;;;;;;;0.17;0.17;;;5.00;99.90;;;;;;5073953;28;20542;-72
2021/11/09 00:57:46;;;;;;;0.77;0.77;;;5.00;99.90;;;;;;5073709;28;20166;-71
2021/11/09 01:00:33;;;;;;;0.20;0.20;;;4.90;99.90;;;;;;5074718;28;20112;-71
2021/11/09 01:03:18;;;;;;;0.52;0.52;;;4.80;99.90;;;;;;5077932;28;20047;-72
2021/11/09 01:06:03;;;;;;;2.88;2.65;;;4.80;99.90;;;;;;5078167;28;20062;-71
2021/11/09 01:08:47;;;;;;;0.30;0.30;;;4.90;99.90;;;;;;5078148;28;20070;-72
2021/11/09 01:11:33;;;;;;;0.10;0.10;;;4.90;99.90;;;;;;5077297;28;20043;-71
2021/11/09 01:14:19;;;;;;;0.13;0.13;;;4.90;99.90;;;;;;5076830;28;20040;-71
2021/11/09 01:17:05;;;;;;;0.98;0.75;;;4.70;99.90;;;;;;5076753;28;20116;-71
2021/11/09 01:19:50;;;;;;;0.40;0.40;;;4.70;99.90;;;;;;5077567;28;20174;-71
2021/11/09 01:22:34;;;;;;;0.68;0.57;;;4.70;99.90;;;;;;5076498;28;20032;-71
2021/11/09 01:25:21;;;;;;;1.13;1.10;;;4.70;99.90;;;;;;5075059;28;20051;-71
2021/11/09 01:28:07;;;;;;;1.55;1.25;;;4.70;99.90;;;;;;5073248;28;20169;-72
2021/11/09 01:30:53;;;;;;;0.10;0.10;;;4.80;99.90;;;;;;5074094;28;20047;-71
2021/11/09 01:33:39;;;;;;;0.75;0.75;;;4.80;99.90;;;;;;5072884;28;20097;-71
2021/11/09 01:36:24;;;;;;;0.15;0.15;;;4.80;99.90;;;;;;5073334;28;20090;-71
2021/11/09 01:39:09;;;;;;;0.50;0.50;;;4.90;99.90;;;;;;5073619;28;20578;-71
2021/11/09 01:41:54;;;;;;;0.25;0.25;;;4.90;99.90;;;;;;5072643;28;20106;-71
2021/11/09 01:44:39;;;;;;;2.63;1.98;;;4.90;99.90;;;;;;5072828;28;20036;-71
2021/11/09 01:47:23;;;;;;;0.13;0.13;;;4.90;99.90;;;;;;5072595;28;20063;-71
2021/11/09 01:50:09;;;;;;;0.20;0.20;;;4.90;99.90;;;;;;5073532;28;20039;-71
2021/11/09 01:52:55;;;;;;;0.22;0.22;;;4.80;99.90;;;;;;5072458;28;20097;-71
2021/11/09 01:55:40;;;;;;;1.15;1.15;;;4.70;99.90;;;;;;5072392;28;20421;-71
2021/11/09 01:58:26;;;;;;;0.00;0.00;;;4.80;99.90;;;;;;5073477;28;20047;-71
2021/11/09 02:01:15;;;;;;;0.88;0.65;;;4.70;99.90;;;;;;5072260;28;20047;-71
2021/11/09 02:04:05;;;;;;;0.40;0.40;;;4.70;99.90;;;;;;5072513;28;20051;-71
2021/11/09 02:06:49;;;;;;;1.35;1.10;;;4.60;99.90;;;;;;5072394;28;20039;-71
2021/11/09 02:09:34;;;;;;;3.22;2.92;;;4.60;99.90;;;;;;5072086;28;20047;-71
2021/11/09 02:12:18;;;;;;;0.55;0.55;;;4.60;99.90;;;;;;5072081;28;20098;-71
2021/11/09 02:15:03;;;;;;;2.25;2.10;;;4.70;99.90;;;;;;5072980;28;20206;-71
2021/11/09 02:17:49;;;;;;;0.93;0.93;;;4.30;99.90;;;;;;5072363;28;20036;-71
2021/11/09 02:20:36;;;;;;;0.10;0.10;;;4.10;99.90;;;;;;5071666;28;20110;-71
2021/11/09 02:23:20;;;;;;;1.35;0.63;;;4.10;99.90;;;;;;5072869;28;20115;-71
2021/11/09 02:26:05;;;;;;;0.60;0.60;;;4.10;99.90;;;;;;5072685;28;20165;-71
2021/11/09 02:28:56;;;;;;;1.10;1.02;;;4.10;99.90;;;;;;5071786;28;20389;-71
2021/11/09 02:31:40;;;;;;;0.82;0.82;;;4.10;99.90;;;;;;5072902;28;20055;-71
2021/11/09 02:34:25;;;;;;;0.65;0.65;;;4.20;99.90;;;;;;5071768;28;20058;-71
2021/11/09 02:37:09;;;;;;;0.30;0.30;;;3.90;99.90;;;;;;5072683;28;20499;-71
2021/11/09 02:39:54;;;;;;;2.72;1.38;;;3.90;99.90;;;;;;5072329;28;20098;-71
2021/11/09 02:42:44;;;;;;;0.43;0.43;;;3.90;99.90;;;;;;5072667;28;20039;-71
2021/11/09 02:49:20;;;;;;;2.05;1.33;;;3.80;99.90;;;;;;5072333;28;20043;-71
2021/11/09 02:52:07;;;;;;;1.85;1.75;;;3.70;99.90;;;;;;5071616;28;20496;-71
2021/11/09 02:54:58;;;;;;;0.00;0.00;;;3.50;99.90;;;;;;5071488;28;20047;-71
2021/11/09 02:57:52;;;;;;;0.17;0.17;;;3.40;99.90;;;;;;5072601;28;20508;-71
2021/11/09 03:00:53;;;;;;;2.75;1.95;;;3.40;99.90;;;;;;5072843;28;20048;-71
2021/11/09 03:09:20;;;;;;;0.10;0.10;;;3.20;99.90;;;;;;5071948;28;20174;-71
2021/11/09 03:12:08;;;;;;;1.90;0.75;;;3.30;99.90;;;;;;5071337;28;20051;-71
2021/11/09 03:14:54;;;;;;;0.10;0.10;;;3.30;99.90;;;;;;5071226;28;20040;-72
2021/11/09 03:17:46;;;;;;;0.13;0.13;;;3.30;99.90;;;;;;5071386;28;20067;-71
2021/11/09 03:20:45;;;;;;;4.72;2.00;;;3.20;99.90;;;;;;5071849;28;20527;-71
2021/11/09 03:47:40;;;;;;;0.35;0.35;;;3.30;99.90;;;;;;5072184;28;20098;-71
2021/11/09 03:50:26;;;;;;;0.10;0.10;;;3.40;99.90;;;;;;5071500;28;20040;-71
2021/11/09 03:56:19;;;;;;;0.80;0.75;;;3.40;99.90;;;;;;5074637;28;20079;-70
2021/11/09 03:59:07;;;;;;;0.08;0.08;;;3.50;99.90;;;;;;5077482;28;20124;-71
2021/11/09 04:04:57;;;;;;;0.10;0.10;;;3.50;99.90;;;;;;5075389;28;20082;-71
2021/11/09 04:10:47;;;;;;;0.50;0.43;;;3.40;99.90;;;;;;5074247;28;20035;-71
2021/11/09 04:19:13;;;;;;;0.90;0.90;;;3.50;99.90;;;;;;5088492;28;20059;-71
2021/11/09 05:10:04;;;;;;;0.95;0.95;;;3.00;99.90;;;;;;5094186;28;20093;-75
2021/11/09 05:12:49;;;;;;;0.13;0.13;;;2.90;99.90;;;;;;5094932;28;20112;-75
2021/11/09 05:15:34;;;;;;;0.68;0.68;;;2.80;99.90;;;;;;5094457;28;20507;-74
2021/11/09 05:18:19;;;;;;;0.00;0.00;;;2.90;99.90;;;;;;5093473;28;20043;-72
2021/11/09 05:21:04;;;;;;;1.25;1.13;;;2.50;99.90;;;;;;5092888;28;20120;-70
2021/11/09 05:23:48;;;;;;;0.80;0.80;;;2.40;99.90;;;;;;5094132;28;20066;-73
2021/11/09 05:26:34;;;;;;;1.02;1.00;;;2.50;99.90;;;;;;5093238;28;20039;-73
2021/11/09 05:29:18;;;;;;;0.30;0.30;;;2.70;99.90;;;;;;5093145;28;20039;-72
2021/11/09 05:32:03;;;;;;;1.00;0.82;;;2.80;99.90;;;;;;5094465;28;20105;-70
2021/11/09 05:34:48;;;;;;;6.43;1.58;;;2.80;99.90;;;;;;5092982;28;20127;-71
2021/11/09 05:37:43;;;;;;;0.70;0.70;;;2.60;99.90;;;;;;5093942;28;20093;-73
2021/11/09 05:40:31;;;;;;;0.10;0.10;;;2.60;99.90;;;;;;5092596;28;20047;-74
2021/11/09 05:43:16;;;;;;;8.25;5.43;;;2.40;99.90;;;;;;5092950;28;20079;-74
2021/11/09 05:46:00;;;;;;;28.13;8.25;;;2.40;99.90;;;;;;5093585;28;20038;-73
2021/11/09 05:48:44;;;;;;;0.65;0.65;;;2.50;99.90;;;;;;5093894;28;20047;-74
2021/11/09 05:51:29;;;;;;;10.50;9.15;;;2.60;99.90;;;;;;5092537;28;20145;-74
2021/11/09 05:54:14;;;;;;;4.63;4.18;;;2.70;99.90;;;;;;5092559;28;20094;-74
2021/11/09 05:56:58;;;;;;;11.00;1.67;;;2.80;99.90;;;;;;5092644;28;20499;-74
2021/11/09 05:59:43;;;;;;;5.18;1.35;;;2.80;99.90;;;;;;5093537;28;20093;-76
2021/11/09 06:02:28;;;;;;;0.25;0.25;;;2.70;99.90;;;;;;5092278;28;20121;-73
2021/11/09 06:05:13;;;;;;;0.70;0.70;;;2.70;99.90;;;;;;5093423;28;20392;-75
2021/11/09 06:07:57;;;;;;;1.77;0.80;;;2.60;99.90;;;;;;5092306;28;20096;-74
2021/11/09 06:10:42;;;;;;;0.28;0.28;;;2.50;99.90;;;;;;5093050;28;20503;-75
2021/11/09 06:13:26;;;;;;;0.75;0.40;;;2.50;99.90;;;;;;5092257;28;20031;-74
2021/11/09 06:16:11;;;;;;;0.38;0.38;;;2.50;99.90;;;;;;5092665;28;20043;-74
2021/11/09 06:18:56;;;;;;;0.10;0.10;;;2.30;99.90;;;;;;5091953;28;20035;-74
2021/11/09 06:21:41;;;;;;;0.35;0.35;;;2.20;99.90;;;;;;5093003;28;20078;-74
2021/11/09 06:24:25;;;;;;;1.08;1.08;;;2.20;99.90;;;;;;5093193;28;20047;-74
2021/11/09 06:27:13;;;;;;;1.35;1.25;;;2.20;99.90;;;;;;5093084;28;20064;-74
2021/11/09 06:29:57;;;;;;;0.40;0.40;;;2.10;99.90;;;;;;5091957;28;20124;-74
2021/11/09 06:32:42;;;;;;;0.10;0.10;;;2.10;99.90;;;;;;5093291;28;20101;-73
2021/11/09 06:35:27;;;;;;;0.28;0.28;;;2.20;99.90;;;;;;5085563;28;20059;-73
2021/11/09 06:38:11;;;;;;;2.10;1.98;;;2.20;99.90;;;;;;5085869;28;20405;-73
2021/11/09 06:40:56;;;;;;;0.30;0.30;;;2.30;99.90;;;;;;5072360;28;20109;-73
2021/11/09 06:43:40;;;;;;;0.30;0.30;;;2.30;99.90;;;;;;5071397;28;20043;-73
2021/11/09 06:46:25;;;;;;;0.10;0.10;;;2.40;99.90;;;;;;5072278;28;20516;-73
2021/11/09 06:49:10;;;;;;;5.90;2.05;;;2.50;99.90;;;;;;5071408;28;20093;-73
2021/11/09 06:51:54;;;;;;;0.50;0.50;;;2.50;99.90;;;;;;5072420;28;20039;-73
2021/11/09 06:54:40;;;;;;;0.40;0.40;;;2.60;99.90;;;;;;5073186;28;20554;-73
2021/11/09 06:57:24;;;;;;;2.38;1.60;;;2.70;99.90;;;;;;5087841;28;20085;-72
2021/11/09 07:00:15;;;;;;;0.65;0.65;;;2.80;99.90;;;;;;5092402;28;20420;-72
2021/11/09 07:03:00;;;;;;;0.77;0.77;;;2.90;99.90;;;;;;5091440;28;20069;-72
2021/11/09 07:05:45;;;;;;;19.23;2.35;;;2.90;99.90;;;;;;5091696;28;20043;-72
2021/11/09 07:08:30;;;;;;;0.47;0.47;;;3.00;99.90;;;;;;5091126;28;20071;-72
2021/11/09 07:11:14;;;;;;;6.30;2.10;;;3.00;99.90;;;;;;5091360;28;20725;-72
2021/11/09 07:13:59;;;;;;;0.10;0.10;;;3.00;99.90;;;;;;5092383;28;20036;-72
2021/11/09 07:16:45;;;;;;;0.17;0.17;;;3.10;99.90;;;;;;5091789;28;20039;-72
2021/11/09 07:19:30;;;;;;;6.18;2.63;;;3.30;99.90;;;;;;5092020;28;20116;-73
2021/11/09 07:22:15;;;;;;;0.30;0.30;;;3.40;99.90;;;;;;5091357;28;20131;-73
2021/11/09 07:25:01;;;;;;;0.10;0.10;;;3.60;99.90;;;;;;5077156;28;20104;-73
2021/11/09 07:27:46;;;;;;;1.05;0.50;;;3.50;99.90;;;;;;5093868;28;20043;-72
2021/11/09 07:30:41;;;;;;;0.38;0.38;;;3.60;99.90;;;;;;5096455;28;20078;-72
2021/11/09 07:33:27;;;;;;;2.40;1.95;;;3.70;99.90;;;;;;5095363;28;20529;-72
2021/11/09 07:36:13;;;;;;;0.60;0.60;;;3.80;99.90;;;;;;5096483;28;20434;-73
2021/11/09 07:38:58;;;;;;;1.45;1.35;;;3.90;99.90;;;;;;5095961;28;20778;-73
2021/11/09 07:41:43;;;;;;;0.20;0.20;;;3.90;99.90;;;;;;5096444;28;20040;-73
2021/11/09 07:44:28;;;;;;;0.95;0.95;;;3.90;99.90;;;;;;5096044;28;20491;-73
2021/11/09 07:47:13;;;;;;;2.38;2.17;;;4.10;99.90;;;;;;5096177;28;20043;-67
2021/11/09 07:49:57;;;;;;;0.95;0.95;;;4.10;99.90;;;;;;5095040;28;20047;-72
2021/11/09 07:52:44;;;;;;;5.38;2.38;;;4.20;99.90;;;;;;5095972;28;20128;-72
2021/11/09 07:55:37;;;;;;;1.27;1.17;;;4.30;99.90;;;;;;5094150;28;20115;-72
2021/11/09 08:01:48;;;;;;;0.30;0.30;;;4.40;99.90;;;;;;5094540;28;20511;-72
2021/11/09 08:04:45;;;;;;;0.45;0.45;;;4.50;99.90;;;;;;5094652;28;20040;-72
2021/11/09 08:07:35;;;;;;;0.30;0.30;;;4.70;99.90;;;;;;5095517;28;20074;-72
2021/11/09 08:10:20;;;;;;;0.50;0.50;;;4.80;99.90;;;;;;5108792;28;20075;-73
2021/11/09 08:13:04;;;;;;;0.22;0.22;;;4.90;99.90;;;;;;5095656;28;20047;-73
2021/11/09 08:15:49;;;;;;;0.55;0.55;;;5.00;99.90;;;;;;5094917;28;20050;-73
2021/11/09 08:18:33;;;;;;;1.77;1.67;;;5.10;99.90;;;;;;5095380;28;20096;-73
2021/11/09 08:21:18;;;;;;;0.10;0.10;;;5.20;99.90;;;;;;5093378;28;20173;-73
2021/11/09 08:24:04;;;;;;;0.85;0.85;;;5.40;99.90;;;;;;5092380;28;20079;-73
2021/11/09 08:26:49;;;;;;;1.75;1.27;;;5.50;99.90;;;;;;5091818;28;20062;-73
2021/11/09 08:29:34;;;;;;;0.55;0.55;;;5.60;99.90;;;;;;5092860;28;20039;-73
2021/11/09 08:32:20;;;;;;;2.35;0.40;;;5.70;99.90;;;;;;5093850;28;20125;-73
2021/11/09 08:35:06;;;;;;;0.00;0.00;;;5.80;99.90;;;;;;5093375;28;20442;-73
2021/11/09 08:37:51;;;;;;;1.23;1.13;;;6.00;99.90;;;;;;5093600;28;20067;-73
2021/11/09 08:40:39;;;;;;;0.35;0.35;;;6.10;99.90;;;;;;5093575;28;20039;-73
2021/11/09 08:43:27;;;;;;;0.90;0.82;;;6.20;99.90;;;;;;5093925;28;20063;-73
2021/11/09 08:46:17;;;;;;;2.50;2.30;;;6.30;99.90;;;;;;5093154;28;20051;-72
2021/11/09 08:49:06;;;;;;;0.45;0.45;;;6.40;99.90;;;;;;5092846;28;20513;-73
2021/11/09 08:51:54;;;;;;;1.38;0.50;;;6.50;99.90;;;;;;5091778;28;20065;-72
2021/11/09 08:54:51;;;;;;;2.40;1.05;;;6.50;99.90;;;;;;5092414;28;20168;-72
2021/11/09 09:04:13;;;;;;;0.52;0.52;;;6.80;99.90;;;;;;5073709;28;20535;-73
2021/11/09 09:06:59;;;;;;;0.75;0.73;;;7.00;99.90;;;;;;5073301;28;20091;-72
2021/11/09 09:09:44;;;;;;;0.98;0.88;;;7.10;99.90;;;;;;5086408;28;20097;-72
2021/11/09 09:12:30;;;;;;;1.60;1.30;;;7.30;99.90;;;;;;5073329;28;20038;-72
2021/11/09 09:15:17;;;;;;;1.85;1.63;;;7.50;99.90;;;;;;5073217;28;20567;-72
2021/11/09 09:18:03;;;;;;;0.93;0.90;;;7.70;99.90;;;;;;5073203;28;20121;-72
2021/11/09 09:20:54;;;;;;;0.47;0.47;;;7.90;99.90;;;;;;5034835;28;1095972;-72
2021/11/09 09:23:45;;;;;;;0.08;0.08;;;8.00;99.90;;;;;;5073910;28;20433;-72
2021/11/09 09:26:50;;;;;;;5.68;3.95;;;8.20;99.90;;;;;;5072924;28;20071;-72
2021/11/09 09:52:12;;;;;;;0.22;0.22;;;8.80;99.90;;;;;;5073265;28;20098;-72
2021/11/09 09:56:52;;;;;;;0.25;0.25;;;13.40;99.90;;;;;;5073199;28;20048;-73
2021/11/09 09:59:40;;;;;;;0.60;0.60;;;14.50;99.90;;;;;;5073082;28;20154;-71
2021/11/09 10:02:30;;;;;;;0.45;0.20;;;17.30;97.50;;;;;;5086240;28;20125;-71
2021/11/09 10:05:15;;;;;;;0.13;0.10;;;14.80;96.60;;;;;;5073664;28;20027;-72
2021/11/09 10:08:18;;;;;;;1.70;1.10;;;16.60;96.90;;;;;;5073218;28;20128;-72
2021/11/09 10:11:02;;;;;;;0.98;0.20;;;16.90;94.10;;;;;;5073102;28;20110;-72
2021/11/09 10:13:47;;;;;;;1.23;0.60;;;16.60;93.50;;;;;;5086642;28;20082;-72
2021/11/09 10:16:34;;;;;;;0.00;0.00;;;16.90;91.30;;;;;;5089299;28;20093;-72
2021/11/09 10:19:33;;;;;;;0.00;0.00;;;16.10;92.00;;;;;;5092087;28;20511;-72
2021/11/09 10:22:29;;;;;;;0.00;0.00;;;16.90;91.80;;;;;;5093437;28;20539;-71
2021/11/09 10:25:17;;;;;;;0.00;0.00;;;17.30;90.90;;;;;;5092608;28;20097;-71
2021/11/09 10:28:11;;;;;;;0.00;0.00;;;14.70;93.70;;;;;;5093287;28;20176;-71
2021/11/09 10:31:00;;;;;;;0.10;0.10;;;14.90;93.00;;;;;;5091883;28;20420;-71
2021/11/09 10:33:49;;;;;;;0.00;0.00;;;14.40;96.10;;;;;;5091865;28;20059;-72
2021/11/09 10:36:34;;;;;;;0.00;0.00;;;15.20;93.90;;;;;;5106403;28;20043;-71
2021/11/09 10:39:22;;;;;;;0.17;0.05;;;15.20;92.40;;;;;;5091748;28;20085;-71
2021/11/09 10:42:20;;;;;;;0.00;0.00;;;15.00;92.50;;;;;;5092807;28;20046;-72
2021/11/09 10:45:11;;;;;;;0.00;0.00;;;17.10;85.80;;;;;;5092766;28;20089;-71
2021/11/09 10:48:03;;;;;;;0.32;0.28;;;16.70;85.50;;;;;;5092168;28;20499;-72
2021/11/09 10:50:57;;;;;;;0.00;0.00;;;16.30;88.30;;;;;;5092060;28;20046;-72
2021/11/09 10:53:47;;;;;;;0.00;0.00;;;16.00;86.90;;;;;;5091282;28;20092;-72
2021/11/09 10:59:27;;;;;;;0.00;0.00;;;15.20;89.00;;;;;;5092512;28;20086;-72
2021/11/09 11:05:33;;;;;;;0.00;0.00;;;16.50;87.80;;;;;;5092227;28;20055;-72
2021/11/09 11:08:18;;;;;;;0.40;0.28;;;16.90;84.60;;;;;;5092435;28;20055;-72
2021/11/09 11:11:27;;;;;;;0.00;0.00;;;16.20;83.30;;;;;;5092543;28;20082;-72
2021/11/09 11:14:21;;;;;;;0.17;0.17;;;15.40;85.20;;;;;;5092916;28;20117;-71
2021/11/09 11:17:19;;;;;;;0.00;0.00;;;15.20;86.90;;;;;;5091642;28;20043;-72
2021/11/09 11:20:04;;;;;;;0.00;0.00;;;15.00;87.40;;;;;;5092070;28;20117;-71
2021/11/09 11:22:48;;;;;;;0.38;0.35;;;16.20;86.70;;;;;;5091701;28;20074;-72
2021/11/09 11:25:33;;;;;;;0.00;0.00;;;16.80;84.20;;;;;;5091059;28;20043;-69
2021/11/09 11:28:18;;;;;;;0.00;0.00;;;16.80;83.70;;;;;;5091788;28;20472;-71
2021/11/09 11:31:05;;;;;;;0.03;0.03;;;17.20;81.60;;;;;;5091320;28;20055;-71
2021/11/09 11:33:50;;;;;;;0.00;0.00;;;18.40;77.70;;;;;;5091131;28;20533;-70
2021/11/09 11:36:35;;;;;;;0.03;0.03;;;17.20;77.10;;;;;;5092037;28;20079;-70
2021/11/09 11:39:29;;;;;;;0.63;0.40;;;17.40;78.30;;;;;;5090933;28;20031;-71
2021/11/09 11:42:17;;;;;;;0.00;0.00;;;17.50;77.40;;;;;;5076895;28;20089;-68
2021/11/09 11:45:02;;;;;;;0.20;0.20;;;17.70;76.90;;;;;;5091874;28;20177;-69
2021/11/09 11:48:07;;;;;;;0.30;0.20;;;15.80;81.10;;;;;;5091641;28;20112;-70
2021/11/09 11:50:52;;;;;;;0.00;0.00;;;15.70;84.20;;;;;;5091995;28;20035;-70
2021/11/09 11:53:41;;;;;;;0.45;0.28;;;15.80;81.90;;;;;;5092010;28;20115;-70
2021/11/09 11:56:45;;;;;;;0.00;0.00;;;16.10;81.70;;;;;;5092444;28;20043;-70
2021/11/09 11:59:33;;;;;;;0.00;0.00;;;16.30;82.90;;;;;;5087854;28;20073;-70
2021/11/09 12:02:35;;;;;;;0.00;0.00;;;17.10;80.40;;;;;;5098635;28;20050;-70
2021/11/09 12:05:48;;;;;;;0.00;0.00;;;18.30;79.10;;;;;;5097865;28;20119;-70
2021/11/09 12:08:49;;;;;;;0.00;0.00;;;17.40;75.80;;;;;;5090598;28;20500;-70
2021/11/09 12:11:38;;;;;;;0.00;0.00;;;16.60;80.80;;;;;;5090944;28;20487;-70
2021/11/09 12:14:23;;;;;;;0.00;0.00;;;15.60;80.20;;;;;;5093397;28;20043;-70
2021/11/09 12:17:11;;;;;;;0.00;0.00;;;17.20;78.10;;;;;;5094770;28;20698;-70
2021/11/09 12:19:57;;;;;;;0.00;0.00;;;16.40;78.30;;;;;;5095206;28;20088;-70
2021/11/09 12:22:42;;;;;;;0.00;0.00;;;16.00;81.60;;;;;;5094533;28;20519;-70
2021/11/09 12:25:33;;;;;;;0.00;0.00;;;16.50;80.60;;;;;;5095612;28;20093;-70
2021/11/09 12:28:18;;;;;;;0.00;0.00;;;15.40;82.70;;;;;;5095522;28;20035;-70
2021/11/09 12:31:15;;;;;;;0.00;0.00;;;15.70;83.00;;;;;;5094749;28;20047;-70
2021/11/09 12:33:59;;;;;;;0.00;0.00;;;15.90;83.20;;;;;;5095370;28;20586;-70
2021/11/09 12:36:44;;;;;;;0.10;0.10;;;16.20;81.80;;;;;;5095163;28;20129;-70
2021/11/09 12:39:29;;;;;;;0.00;0.00;;;16.40;82.20;;;;;;5095001;28;20104;-70
2021/11/09 12:42:14;;;;;;;0.00;0.00;;;15.60;85.90;;;;;;5094479;28;20540;-70
2021/11/09 12:44:59;;;;;;;0.10;0.10;;;16.30;82.70;;;;;;5095203;28;20109;-70
2021/11/09 12:48:09;;;;;;;0.05;0.00;;;15.60;82.60;;;;;;5094317;28;20034;-70
2021/11/09 12:51:04;;;;;;;0.00;0.00;;;16.00;84.50;;;;;;5094420;28;20063;-70
2021/11/09 12:53:51;;;;;;;0.00;0.00;;;15.30;84.40;;;;;;5094382;28;20507;-70
2021/11/09 12:56:48;;;;;;;0.05;0.05;;;15.40;84.90;;;;;;5094737;28;20047;-71
2021/11/09 13:05:14;;;;;;;0.00;0.00;;;15.70;84.70;;;;;;5092972;28;20039;-70
2021/11/09 13:08:14;;;;;;;0.00;0.00;;;15.90;84.70;;;;;;5094584;28;20043;-70
2021/11/09 13:10:59;;;;;;;0.00;0.00;;;15.80;85.70;;;;;;5093596;28;20051;-71
2021/11/09 13:13:46;;;;;;;0.20;0.20;;;15.70;84.60;;;;;;5093605;28;20116;-70
2021/11/09 13:16:31;;;;;;;0.00;0.00;;;15.80;84.90;;;;;;5093218;28;20119;-70
2021/11/09 13:19:18;;;;;;;0.00;0.00;;;16.10;82.60;;;;;;5094507;28;20035;-70
2021/11/09 13:22:28;;;;;;;0.00;0.00;;;16.40;83.00;;;;;;5093944;28;20409;-70
2021/11/09 13:25:13;;;;;;;0.00;0.00;;;15.20;85.30;;;;;;5093390;28;20047;-70
2021/11/09 13:28:01;;;;;;;0.00;0.00;;;15.70;84.50;;;;;;5094197;28;20039;-70
2021/11/09 13:30:59;;;;;;;0.00;0.00;;;15.60;85.00;;;;;;5093180;28;20100;-71
2021/11/09 13:33:50;;;;;;;0.20;0.20;;;15.40;84.00;;;;;;5092802;28;20435;-70
2021/11/09 13:36:35;;;;;;;0.00;0.00;;;15.50;88.00;;;;;;5093777;28;20050;-71
2021/11/09 13:39:20;;;;;;;0.52;0.30;;;15.50;87.50;;;;;;5092789;28;20525;-71
2021/11/09 13:42:06;;;;;;;0.05;0.05;;;15.30;85.30;;;;;;5092985;28;20484;-71
2021/11/09 13:44:50;;;;;;;0.00;0.00;;;14.80;86.70;;;;;;5093871;28;20089;-71
2021/11/09 13:47:35;;;;;;;0.00;0.00;;;14.40;87.60;;;;;;5093687;28;20038;-71
2021/11/09 13:50:19;;;;;;;0.00;0.00;;;14.70;88.90;;;;;;5093786;28;20085;-71
2021/11/09 13:53:04;;;;;;;0.00;0.00;;;14.90;86.80;;;;;;5094054;28;20039;-71
2021/11/09 13:55:49;;;;;;;0.00;0.00;;;15.30;86.40;;;;;;5093643;28;20487;-71
2021/11/09 13:58:36;;;;;;;0.00;0.00;;;15.60;85.60;;;;;;5078218;28;20640;-71
2021/11/09 14:01:41;;;;;;;0.00;0.00;;;15.20;86.20;;;;;;5093410;28;20487;-71
2021/11/09 14:11:04;;;;;;;0.00;0.00;;;15.60;85.80;;;;;;5093205;28;20035;-71
2021/11/09 14:17:00;;;;;;;0.00;0.00;;;15.70;86.40;;;;;;5093348;28;20035;-71
2021/11/09 14:19:45;;;;;;;0.00;0.00;;;15.00;86.90;;;;;;5092963;28;20117;-71
2021/11/09 14:22:29;;;;;;;0.45;0.45;;;15.50;87.10;;;;;;5092395;28;20088;-71
2021/11/09 14:25:16;;;;;;;0.10;0.05;;;15.70;86.70;;;;;;5091996;28;20047;-71
2021/11/09 14:28:01;;;;;;;0.00;0.00;;;15.60;86.30;;;;;;5093069;28;20039;-70
2021/11/09 14:30:45;;;;;;;0.75;0.52;;;15.50;86.40;;;;;;5091863;28;20475;-70
2021/11/09 14:33:32;;;;;;;0.00;0.00;;;15.50;88.40;;;;;;5093112;28;20039;-70
2021/11/09 14:36:32;;;;;;;0.32;0.32;;;15.40;87.80;;;;;;5091685;28;20073;-70
2021/11/09 14:39:22;;;;;;;0.08;0.08;;;15.00;87.20;;;;;;5092702;28;20397;-70
2021/11/09 14:48:14;;;;;;;0.00;0.00;;;14.70;90.10;;;;;;5092265;28;20039;-70
2021/11/09 14:51:05;;;;;;;0.85;0.25;;;14.30;90.90;;;;;;5092439;28;20039;-71
2021/11/09 14:56:36;;;;;;;0.47;0.35;;;14.60;90.40;;;;;;5092256;28;20035;-71
2021/11/09 14:59:21;;;;;;;0.00;0.00;;;14.70;90.70;;;;;;5091403;28;20043;-71
2021/11/09 15:02:08;;;;;;;0.10;0.08;;;14.70;90.60;;;;;;5092461;28;20089;-70
2021/11/09 15:04:54;;;;;;;0.00;0.00;;;15.00;90.50;;;;;;5092394;28;20092;-71
2021/11/09 15:07:57;;;;;;;0.28;0.28;;;15.20;90.20;;;;;;5091698;28;20047;-71
2021/11/09 15:24:58;;;;;;;0.00;0.00;;;14.70;90.70;;;;;;5092498;28;20043;-71
2021/11/09 15:31:33;;;;;;;0.57;0.08;;;14.10;92.60;;;;;;5090781;28;20038;-71
2021/11/09 15:34:34;;;;;;;0.00;0.00;;;13.80;92.40;;;;;;5091341;28;20093;-70
2021/11/09 15:37:25;;;;;;;0.05;0.05;;;13.80;92.90;;;;;;5092337;28;20114;-72
2021/11/09 15:40:12;;;;;;;1.35;0.57;;;14.20;93.50;;;;;;5091891;28;20139;-71
2021/11/09 15:42:56;;;;;;;0.00;0.00;;;14.20;93.20;;;;;;5091478;28;20035;-71
2021/11/09 15:45:43;;;;;;;0.75;0.75;;;13.80;93.70;;;;;;5092182;28;20070;-71
2021/11/09 15:48:29;;;;;;;4.40;2.00;;;13.60;94.40;;;;;;5093061;28;20499;-71
2021/11/09 15:51:19;;;;;;;0.63;0.63;;;13.60;95.40;;;;;;5095112;28;20404;-72
2021/11/09 15:54:04;;;;;;;2.20;1.08;;;13.00;95.90;;;;;;5095171;28;20101;-71
2021/11/09 15:56:49;;;;;;;0.00;0.00;;;12.90;97.00;;;;;;5094979;28;20143;-72
2021/11/09 15:59:34;;;;;;;0.43;0.43;;;12.60;97.30;;;;;;5095947;28;20496;-72
2021/11/09 16:02:21;;;;;;;2.50;0.30;;;12.50;99.90;;;;;;5096017;28;20035;-70
2021/11/09 16:05:07;;;;;;;0.10;0.10;;;12.20;99.90;;;;;;5095065;28;20472;-70
2021/11/09 16:07:54;;;;;;;0.40;0.20;;;12.00;99.90;;;;;;5095766;28;20128;-71
2021/11/09 16:10:39;;;;;;;0.08;0.08;;;11.80;99.90;;;;;;5095671;28;20040;-71
2021/11/09 16:13:24;;;;;;;0.00;0.00;;;11.60;99.90;;;;;;5095797;28;20097;-72
2021/11/09 16:16:09;;;;;;;0.00;0.00;;;11.40;99.90;;;;;;5095747;28;20183;-71
2021/11/09 16:18:54;;;;;;;0.00;0.00;;;11.10;99.90;;;;;;5095821;28;20081;-71
2021/11/09 16:21:38;;;;;;;0.95;0.95;;;10.90;99.90;;;;;;5094996;28;20059;-69
2021/11/09 16:24:23;;;;;;;0.10;0.10;;;10.70;99.90;;;;;;5094508;28;20090;-72
2021/11/09 16:27:07;;;;;;;0.98;0.80;;;10.60;99.90;;;;;;5095241;28;20420;-68
2021/11/09 16:30:10;;;;;;;0.70;0.55;;;10.50;99.90;;;;;;5094189;28;20100;-72
2021/11/09 16:33:22;;;;;;;0.13;0.10;;;10.30;99.90;;;;;;5095172;28;20084;-72
2021/11/09 16:36:36;;;;;;;0.08;0.08;;;10.00;99.90;;;;;;5093911;28;20089;-72
2021/11/09 16:39:32;;;;;;;0.43;0.43;;;9.90;99.90;;;;;;5094711;28;20132;-72
2021/11/09 16:42:18;;;;;;;0.00;0.00;;;9.90;99.90;;;;;;5094168;28;20051;-71
2021/11/09 16:45:06;;;;;;;0.00;0.00;;;9.60;99.90;;;;;;5093766;28;20127;-72
2021/11/09 16:47:50;;;;;;;0.00;0.00;;;9.40;99.90;;;;;;5093923;28;20100;-73
2021/11/09 16:53:27;;;;;;;0.13;0.13;;;9.40;99.90;;;;;;5094834;28;20067;-72
2021/11/09 16:59:22;;;;;;;0.00;0.00;;;9.30;99.90;;;;;;5093852;28;20039;-72
2021/11/09 17:25:41;;;;;;;3.97;0.70;;;8.80;99.90;;;;;;5094394;28;20190;-75
2021/11/09 18:20:32;;;;;;;0.25;0.25;;;7.30;99.90;;;;;;5092834;28;20135;-74
2021/11/09 18:23:17;;;;;;;0.60;0.60;;;7.20;99.90;;;;;;5091930;28;20384;-73
2021/11/09 18:26:04;;;;;;;1.25;1.20;;;7.20;99.90;;;;;;5092864;28;20412;-73
2021/11/09 18:28:49;;;;;;;0.10;0.10;;;7.10;99.90;;;;;;5085680;28;20120;-74
2021/11/09 18:31:33;;;;;;;1.65;1.17;;;7.10;99.90;;;;;;5072182;28;20043;-72
2021/11/09 18:34:19;;;;;;;6.43;1.65;;;7.10;99.90;;;;;;5073113;28;20063;-73
2021/11/09 18:37:04;;;;;;;0.00;0.00;;;6.80;99.90;;;;;;5071254;28;20189;-73
2021/11/09 18:39:52;;;;;;;1.65;1.27;;;6.70;99.90;;;;;;5072473;28;20093;-72
2021/11/09 18:42:38;;;;;;;2.28;1.95;;;6.70;99.90;;;;;;5085619;28;20079;-73
2021/11/09 18:45:24;;;;;;;0.10;0.10;;;6.30;99.90;;;;;;5085868;28;20052;-73
2021/11/09 18:48:11;;;;;;;1.00;1.00;;;6.40;99.90;;;;;;5085372;28;20480;-73
2021/11/09 18:50:56;;;;;;;0.08;0.08;;;6.50;99.90;;;;;;5089186;28;20089;-73
2021/11/09 18:53:40;;;;;;;0.43;0.43;;;6.50;99.90;;;;;;5085801;28;20043;-74
2021/11/09 18:56:26;;;;;;;0.10;0.10;;;6.40;99.90;;;;;;5072951;28;20109;-73
2021/11/09 18:59:10;;;;;;;0.47;0.47;;;6.30;99.90;;;;;;5072339;28;20655;-72
2021/11/09 19:01:56;;;;;;;0.55;0.47;;;6.30;99.90;;;;;;5072705;28;20044;-73